createdAt,value
2022-09-11T00:00:33.729Z,20.93
2022-09-11T00:04:32.785Z,20.98
2022-09-11T00:07:50.750Z,21.08
2022-09-11T00:11:30.714Z,21.27
2022-09-11T00:15:19.978Z,20.70
2022-09-11T00:18:52.082Z,20.77
2022-09-11T00:22:21.291Z,20.78
2022-09-11T00:25:19.571Z,21.12
2022-09-11T00:28:48.828Z,20.76
2022-09-11T00:32:09.170Z,20.88
2022-09-11T00:35:13.976Z,20.67
2022-09-11T00:38:17.982Z,20.50
2022-09-11T00:41:44.752Z,20.53
2022-09-11T00:45:33.859Z,20.57
2022-09-11T00:49:00.669Z,20.55
2022-09-11T00:52:12.431Z,20.64
2022-09-11T00:55:28.201Z,20.57
2022-09-11T00:58:59.247Z,20.47
2022-09-11T01:02:27.598Z,20.61
2022-09-11T01:06:16.336Z,20.79
2022-09-11T01:09:45.249Z,20.76
2022-09-11T01:13:11.676Z,20.71
2022-09-11T01:17:27.687Z,20.74
2022-09-11T01:21:32.459Z,20.79
2022-09-11T01:25:38.472Z,20.61
2022-09-11T01:29:21.142Z,20.62
2022-09-11T01:32:55.643Z,20.50
2022-09-11T01:36:19.812Z,20.47
2022-09-11T01:39:41.675Z,20.42
2022-09-11T01:43:05.626Z,20.45
2022-09-11T01:46:54.934Z,20.45
2022-09-11T01:50:40.037Z,20.48
2022-09-11T01:54:08.890Z,20.49
2022-09-11T01:57:37.654Z,20.64
2022-09-11T02:00:40.815Z,21.31
2022-09-11T02:03:48.146Z,21.21
2022-09-11T02:07:29.744Z,20.83
2022-09-11T02:11:21.582Z,20.64
2022-09-11T02:14:53.416Z,20.53
2022-09-11T02:18:37.288Z,20.47
2022-09-11T05:09:26.682Z,17.31
2022-09-11T05:13:20.161Z,18.81
2022-09-11T05:17:09.348Z,18.79
2022-09-11T05:20:57.054Z,18.97
2022-09-11T05:24:44.900Z,19.02
2022-09-11T05:28:34.115Z,19.23
2022-09-11T05:32:21.648Z,19.36
2022-09-11T05:36:09.286Z,19.40
2022-09-11T05:40:00.306Z,19.32
2022-09-11T05:43:48.310Z,19.47
2022-09-11T05:47:35.938Z,19.74
2022-09-11T05:51:23.658Z,19.68
2022-09-11T05:55:14.366Z,19.75
2022-09-11T05:59:02.440Z,19.95
2022-09-11T06:02:52.254Z,19.97
2022-09-11T06:06:41.627Z,20.14
2022-09-11T06:10:29.362Z,20.01
2022-09-11T06:14:18.363Z,19.98
2022-09-11T06:18:08.491Z,19.90
2022-09-11T06:22:03.300Z,19.69
2022-09-11T06:25:56.965Z,19.85
2022-09-11T06:29:45.053Z,19.54
2022-09-11T06:33:36.225Z,19.72
2022-09-11T06:37:12.930Z,19.88
2022-09-11T06:41:00.563Z,19.84
2022-09-11T06:44:50.753Z,19.91
2022-09-11T06:48:41.199Z,19.51
2022-09-11T06:51:54.125Z,19.60
2022-09-11T06:55:40.540Z,19.53
2022-09-11T06:59:10.839Z,19.67
2022-09-11T07:03:00.408Z,20.27
2022-09-11T07:06:47.982Z,20.23
2022-09-11T07:10:36.279Z,20.30
2022-09-11T07:14:17.942Z,20.04
2022-09-11T07:17:58.769Z,19.61
2022-09-11T07:21:19.425Z,19.71
2022-09-11T07:24:30.393Z,19.62
2022-09-11T07:28:03.476Z,19.53
2022-09-11T07:31:51.023Z,19.65
2022-09-11T07:35:01.796Z,19.94
2022-09-11T07:38:33.117Z,20.00
2022-09-11T07:42:05.332Z,19.77
2022-09-11T07:45:03.266Z,19.81
2022-09-11T07:48:51.614Z,19.62
2022-09-11T07:52:39.841Z,19.71
2022-09-11T07:56:00.286Z,20.02
2022-09-11T07:59:37.294Z,20.13
2022-09-11T08:03:05.613Z,19.75
2022-09-11T08:06:08.790Z,19.77
2022-09-11T08:08:59.781Z,19.84
2022-09-11T08:12:10.319Z,20.05
2022-09-11T08:15:58.284Z,20.32
2022-09-11T08:19:26.940Z,20.39
2022-09-11T08:22:04.057Z,20.17
2022-09-11T08:25:28.215Z,19.94
2022-09-11T08:29:05.739Z,20.11
2022-09-11T08:32:04.494Z,20.22
2022-09-11T08:35:21.575Z,20.42
2022-09-11T08:38:12.789Z,20.60
2022-09-11T08:41:12.259Z,20.91
2022-09-11T08:44:51.803Z,20.67
2022-09-11T08:48:08.753Z,20.70
2022-09-11T08:51:27.679Z,20.57
2022-09-11T08:55:04.811Z,20.88
2022-09-11T08:58:20.776Z,21.43
2022-09-11T09:01:57.520Z,21.33
2022-09-11T09:06:01.066Z,21.72
2022-09-11T09:09:57.704Z,21.59
2022-09-11T09:13:29.226Z,22.08
2022-09-11T09:17:35.273Z,22.14
2022-09-11T09:20:40.100Z,21.60
2022-09-11T09:24:06.814Z,21.56
2022-09-11T09:27:25.452Z,21.50
2022-09-11T09:30:29.519Z,21.22
2022-09-11T09:33:31.505Z,21.78
2022-09-11T09:37:03.007Z,21.99
2022-09-11T09:40:33.484Z,22.00
2022-09-11T09:44:07.921Z,21.65
2022-09-11T09:46:59.891Z,21.14
2022-09-11T09:50:10.356Z,21.04
2022-09-11T09:54:13.558Z,21.66
2022-09-11T09:57:42.709Z,22.03
2022-09-11T10:01:17.565Z,21.67
2022-09-11T10:04:59.004Z,21.62
2022-09-11T10:07:57.278Z,22.43
2022-09-11T10:10:57.771Z,22.43
2022-09-11T10:13:44.970Z,22.31
2022-09-11T10:16:48.064Z,21.66
2022-09-11T10:19:54.424Z,21.49
2022-09-11T10:23:31.839Z,21.50
2022-09-11T10:27:27.223Z,21.79
2022-09-11T10:31:02.967Z,22.12
2022-09-11T10:34:41.466Z,22.00
2022-09-11T10:37:56.784Z,21.99
2022-09-11T10:41:37.690Z,21.81
2022-09-11T10:45:27.003Z,22.11
2022-09-11T10:49:16.726Z,22.09
2022-09-11T10:53:11.238Z,22.33
2022-09-11T10:57:00.180Z,22.47
2022-09-11T11:00:49.089Z,22.39
2022-09-11T11:04:14.050Z,22.12
2022-09-11T11:08:01.755Z,21.76
2022-09-11T11:11:40.076Z,21.80
2022-09-11T11:15:22.130Z,22.02
2022-09-11T11:18:31.064Z,22.16
2022-09-11T11:22:15.763Z,22.31
2022-09-11T11:25:44.255Z,22.33
2022-09-11T11:29:12.094Z,22.78
2022-09-11T11:33:04.035Z,23.16
2022-09-11T11:37:11.769Z,23.33
2022-09-11T11:41:08.528Z,23.26
2022-09-11T11:44:35.454Z,22.82
2022-09-11T11:47:10.386Z,22.54
2022-09-11T11:50:37.274Z,22.38
2022-09-11T12:18:45.532Z,21.67
2022-09-11T12:22:08.700Z,21.73
2022-09-11T12:25:46.828Z,21.62
2022-09-11T12:29:11.633Z,21.60
2022-09-11T12:32:22.617Z,21.20
2022-09-11T12:35:57.680Z,21.09
2022-09-11T12:39:20.189Z,21.08
2022-09-11T12:43:08.573Z,21.28
2022-09-11T12:46:28.405Z,21.14
2022-09-11T12:49:48.762Z,21.00
2022-09-11T12:53:01.490Z,20.99
2022-09-11T12:56:08.183Z,21.11
2022-09-11T12:59:20.868Z,21.11
2022-09-11T13:01:49.362Z,20.97
2022-09-11T13:04:22.145Z,21.05
2022-09-11T13:06:54.300Z,20.99
2022-09-11T13:10:07.475Z,21.24
2022-09-11T13:12:55.335Z,21.07
2022-09-11T13:15:45.078Z,20.97
2022-09-11T13:19:04.903Z,21.04
2022-09-11T13:22:42.007Z,20.98
2022-09-11T13:26:12.894Z,21.03
2022-09-11T13:29:47.618Z,21.01
2022-09-11T13:33:38.707Z,20.61
2022-09-11T13:37:27.538Z,20.25
2022-09-11T13:40:45.221Z,20.39
2022-09-11T13:44:43.754Z,20.57
2022-09-11T13:48:23.950Z,20.70
2022-09-11T13:52:13.320Z,20.84
2022-09-11T13:56:05.544Z,20.91
2022-09-11T13:59:28.515Z,21.20
2022-09-11T14:03:10.087Z,21.21
2022-09-11T14:06:53.601Z,21.18
2022-09-11T14:10:02.499Z,21.47
2022-09-11T14:13:54.965Z,21.57
2022-09-11T14:17:42.614Z,21.87
2022-09-11T14:21:04.440Z,21.57
2022-09-11T14:23:52.365Z,21.45
2022-09-11T14:27:34.386Z,21.34
2022-09-11T14:31:14.689Z,21.42
2022-09-11T14:35:11.153Z,21.48
2022-09-11T14:38:42.311Z,21.41
2022-09-11T14:41:36.031Z,21.55
2022-09-11T14:45:01.846Z,21.78
2022-09-11T14:48:31.205Z,21.76
2022-09-11T14:51:31.549Z,22.06
2022-09-11T14:55:00.421Z,21.87
2022-09-11T14:58:50.335Z,21.69
2022-09-11T15:02:32.630Z,22.10
2022-09-11T15:06:14.993Z,22.41
2022-09-11T15:09:42.651Z,22.18
2022-09-11T15:13:31.227Z,22.54
2022-09-11T15:16:19.329Z,22.42
2022-09-11T15:18:47.277Z,22.02
2022-09-11T15:21:59.313Z,21.91
2022-09-11T15:25:24.675Z,21.64
2022-09-11T15:29:13.556Z,21.36
2022-09-11T15:32:09.270Z,21.33
2022-09-11T15:35:42.993Z,21.28
2022-09-11T15:38:52.126Z,21.38
2022-09-11T15:42:29.329Z,21.33
2022-09-11T15:46:17.510Z,21.22
2022-09-11T15:50:06.305Z,21.43
2022-09-11T15:53:32.550Z,21.43
2022-09-11T15:57:16.731Z,21.30
2022-09-11T16:00:52.039Z,21.23
2022-09-11T16:04:32.756Z,21.22
2022-09-11T16:08:21.469Z,21.12
2022-09-11T16:11:50.132Z,21.11
2022-09-11T16:15:38.876Z,21.38
2022-09-11T16:19:18.073Z,21.38
2022-09-11T16:22:48.991Z,21.17
2022-09-11T16:26:39.955Z,20.89
2022-09-11T16:30:42.134Z,21.00
2022-09-11T16:33:57.040Z,20.80
2022-09-11T16:37:41.712Z,20.77
2022-09-11T16:41:24.736Z,20.84
2022-09-11T16:45:11.455Z,20.71
2022-09-11T16:48:54.491Z,20.60
2022-09-11T16:52:43.186Z,20.65
2022-09-11T16:56:22.995Z,20.59
2022-09-11T17:00:03.800Z,20.54
2022-09-11T17:03:39.460Z,20.50
2022-09-11T17:07:09.183Z,20.55
2022-09-11T17:10:08.806Z,20.36
2022-09-11T17:13:33.227Z,20.53
2022-09-11T17:16:58.415Z,20.45
2022-09-11T17:20:14.291Z,20.47
2022-09-11T17:23:47.359Z,20.40
2022-09-11T17:27:23.990Z,20.43
2022-09-11T17:31:12.118Z,20.38
2022-09-11T17:34:59.859Z,20.35
2022-09-11T17:38:47.798Z,20.20
2022-09-11T17:42:12.376Z,20.06
2022-09-11T17:45:18.587Z,19.86
2022-09-11T17:48:29.846Z,19.83
2022-09-11T17:52:07.425Z,19.66
2022-09-11T17:55:56.279Z,19.66
2022-09-11T17:59:50.675Z,19.59
2022-09-11T18:03:43.561Z,19.57
2022-09-11T18:07:34.804Z,19.50
2022-09-11T18:11:10.088Z,19.28
2022-09-11T18:15:00.691Z,19.32
2022-09-11T18:18:48.705Z,19.35
2022-09-11T18:22:30.067Z,19.41
2022-09-11T18:26:19.883Z,19.47
2022-09-11T18:29:59.946Z,19.33
2022-09-11T18:33:41.698Z,19.35
2022-09-11T18:37:30.208Z,19.32
2022-09-11T18:41:01.514Z,19.23
2022-09-11T18:43:46.608Z,19.08
2022-09-11T18:47:33.575Z,18.90
2022-09-11T18:51:00.157Z,18.76
2022-09-11T18:54:53.810Z,18.73
2022-09-11T18:58:15.341Z,18.55
2022-09-11T19:01:57.934Z,18.47
2022-09-11T19:05:45.223Z,18.28
2022-09-11T19:09:24.367Z,18.33
2022-09-11T19:12:56.839Z,18.22
2022-09-11T19:16:45.474Z,18.26
2022-09-11T19:20:33.917Z,18.20
2022-09-11T19:24:22.589Z,18.09
2022-09-11T19:28:10.464Z,18.15
2022-09-11T19:32:00.321Z,18.06
2022-09-11T19:35:48.463Z,17.82
2022-09-11T19:39:14.098Z,17.75
2022-09-11T19:42:54.648Z,17.68
2022-09-11T19:46:23.477Z,17.54
2022-09-11T19:50:15.371Z,17.48
2022-09-11T19:54:03.811Z,17.39
2022-09-11T19:57:51.748Z,17.40
2022-09-11T20:01:16.876Z,17.35
2022-09-11T20:05:17.680Z,17.24
2022-09-11T20:09:29.943Z,17.28
2022-09-11T20:13:15.279Z,17.20
2022-09-11T20:17:03.098Z,17.13
2022-09-11T20:20:50.640Z,17.14
2022-09-11T20:24:22.508Z,17.16
2022-09-11T20:28:03.208Z,17.06
2022-09-11T20:31:46.872Z,17.18
2022-09-11T20:35:35.373Z,17.21
2022-09-11T20:39:23.084Z,17.12
2022-09-11T20:43:10.729Z,16.96
2022-09-11T20:46:58.076Z,16.96
2022-09-11T20:50:46.101Z,16.95
2022-09-11T20:54:34.163Z,16.81
2022-09-11T20:58:21.945Z,16.70
2022-09-11T21:02:09.982Z,16.69
2022-09-11T21:05:57.717Z,16.43
2022-09-11T21:09:48.038Z,16.57
2022-09-11T21:13:18.539Z,16.56
2022-09-11T21:17:08.034Z,16.50
2022-09-11T21:20:56.430Z,16.42
2022-09-11T21:24:44.494Z,16.30
2022-09-11T21:28:33.016Z,16.21
2022-09-11T21:32:20.738Z,16.18
2022-09-11T21:36:01.397Z,16.18
2022-09-11T21:39:49.575Z,16.14
2022-09-11T21:43:07.030Z,16.04
2022-09-11T21:46:54.726Z,16.01
2022-09-11T21:50:42.766Z,16.09
2022-09-11T21:54:32.006Z,15.98
2022-09-11T21:58:20.187Z,15.93
2022-09-11T22:02:06.779Z,16.06
2022-09-11T22:05:54.267Z,16.08
2022-09-11T22:09:31.909Z,16.01
2022-09-11T22:13:18.648Z,15.93
2022-09-11T22:17:07.073Z,15.90
2022-09-11T22:20:54.562Z,15.97
2022-09-11T22:24:42.135Z,15.87
2022-09-11T22:28:24.953Z,15.82
2022-09-11T22:32:12.898Z,15.83
2022-09-11T22:36:00.666Z,15.76
2022-09-11T22:39:14.540Z,15.74
2022-09-11T22:43:02.173Z,15.67
2022-09-11T22:46:30.289Z,15.71
2022-09-11T22:50:18.169Z,15.70
2022-09-11T22:54:05.718Z,15.62
2022-09-11T22:57:53.636Z,15.57
2022-09-11T23:01:41.342Z,15.45
2022-09-11T23:05:22.016Z,15.45
2022-09-11T23:09:09.562Z,15.43
2022-09-11T23:12:57.171Z,15.37
2022-09-11T23:16:53.387Z,15.31
2022-09-11T23:20:41.205Z,15.20
2022-09-11T23:24:28.833Z,15.31
2022-09-11T23:28:16.085Z,15.26
2022-09-11T23:31:57.421Z,15.19
2022-09-11T23:35:44.993Z,15.16
2022-09-11T23:39:32.472Z,15.13
2022-09-11T23:43:20.068Z,15.17
2022-09-11T23:47:07.476Z,15.12
2022-09-11T23:50:54.941Z,15.19
2022-09-11T23:54:43.318Z,15.24
2022-09-11T23:58:30.973Z,15.22
